Nearby METAR Reports

 

YSCB - Canberra (civ/Mi, Australia
Distance from station: NNE 21km
Updated: 22/02/2020 12:00
Mostly cloudy
Mostly cloudy
 Wind from NE
Wind: NE 11 km/h, Gust: 37 km/h
Temperature: 21°C
Dew Point: 10°C
Humidity: 50%
Barometer: 1025 hPa
Clouds: Mostly cloudy
Visibility: 10 km
Cloud details: Mostly cloudy 1067 m
2020/02/22 01:00 YSCB 220100Z AUTO 05006G20KT 330V070 9999 // BKN035 21/10 Q1025 NOSIG
YCOM - Cooma Snowy Mtns, Australia
Distance from station: S 94km
Updated: 22/02/2020 12:00
Clear
Clear
 Wind from NNE
Wind: NNE 22 km/h
Temperature: 19°C
Dew Point: 11°C
Humidity: 60%
Barometer: 1024 hPa
Clouds: Clear
Visibility: 10 km
2020/02/22 01:00 YCOM 220100Z AUTO 03012KT 9999 // NCD 19/11 Q1024
 
YSNW - Nowra (aus-Navy), Australia
Distance from station: ENE 140km
Updated: 22/02/2020 12:00
Overcast
Overcast
 Wind from ESE
Wind: ESE 13 km/h
Temperature: 21°C
Dew Point: 15°C
Humidity: 69%
Barometer: 1025 hPa
Clouds: Overcast
Visibility: 10 km
Cloud details: Partly cloudy 579 m
Mostly cloudy 1250 m
Overcast 1524 m
2020/02/22 01:00 YSNW 220100Z AUTO 11007KT 9999 // SCT019 BKN041 OVC050 21/15 Q1025
YSWG - Wagga Wagga(Cv/M, Australia
Distance from station: WNW 153km
Updated: 22/02/2020 12:00
Clear
Clear
 Wind from NE
Wind: NE 17 km/h
Temperature: 27°C
Dew Point: 11°C
Humidity: 37%
Barometer: 1021 hPa
Clouds: Clear
Visibility: 10 km
2020/02/22 01:00 YSWG 220100Z AUTO 05009KT 9999 // NCD 27/11 Q1021
 
YMER - Merimbula Arpt, Australia
Distance from station: SSE 177km
Updated: 22/02/2020 12:00
Overcast
Overcast
 Wind from NE
Wind: NE 11 km/h
Temperature: 21°C
Dew Point: 12°C
Humidity: 57%
Barometer: 1025 hPa
Clouds: Overcast
Visibility: 10 km
Cloud details: Overcast 1250 m
2020/02/22 01:00 YMER 220100Z AUTO 05006KT 9999 // OVC041 21/12 Q1025
YMAY - Albury Airport, Australia
Distance from station: WSW 207km
Updated: 22/02/2020 12:00
Clear
Clear
 Wind from NNE
Wind: NNE 7 km/h
Temperature: 26°C
Dew Point: 12°C
Humidity: 42%
Barometer: 1021 hPa
Clouds: Clear
Visibility: 10 km
2020/02/22 01:00 YMAY 220100Z AUTO 03004KT 350V100 9999 // NCD 26/12 Q1021
 
YNAR - Narrandera, Australia
Distance from station: WNW 250km
Updated: 22/02/2020 12:00
Clear
Clear
 Wind from NNE
Wind: NNE 17 km/h
Temperature: 28°C
Dew Point: 12°C
Humidity: 37%
Barometer: 1021 hPa
Clouds: Clear
Visibility: 10 km
2020/02/22 01:00 YNAR 220100Z AUTO 02009KT 340V050 9999 // NCD 28/12 Q1021
YSSY - Sydney Intl Airp, Australia
Distance from station: NE 253km
Updated: 22/02/2020 12:00
Nearby showers, Mostly cloudy
Nearby showers, Mostly cloudy
 Wind from SE
Wind: SE 13 km/h
Temperature: 23°C
Dew Point: 15°C
Humidity: 61%
Barometer: 1024 hPa
Summary: Nearby Showers
Clouds: Mostly cloudy
Visibility: 10 km
Cloud details: Partly cloudy 914 m
Partly cloudy 1219 m
Mostly cloudy 1676 m
2020/02/22 01:00 YSSY 220100Z 13007KT 9999 VCSH SCT030 SCT040 BKN055 23/15 Q1024 NOSIG
 
YSRI - Richmond (aus-Af, Australia
Distance from station: NE 257km
Updated: 22/02/2020 12:00
Overcast
Overcast
 Wind from SSE
Wind: SSE 9 km/h
Temperature: 20°C
Dew Point: 17°C
Humidity: 83%
Barometer: 1025 hPa
Clouds: Overcast
Visibility: 10 km
Cloud details: Mostly cloudy 579 m
Overcast 762 m
2020/02/22 01:00 YSRI 220100Z AUTO 16005KT 130V190 9999 // BKN019 OVC025 20/17 Q1025
YWGT - Wangaratta Arp, Australia
Distance from station: WSW 274km
Updated: 22/02/2020 12:00
Clear
Clear
 Wind from NE
Wind: NE 17 km/h
Temperature: 25°C
Dew Point: 9°C
Humidity: 36%
Barometer: 1021 hPa
Clouds: Clear
Visibility: 10 km
2020/02/22 01:00 YWGT 220100Z AUTO 04009KT 9999 // NCD 25/09 Q1021
 
YGTH - Griffith Arpt, Australia
Distance from station: WNW 308km
Updated: 22/02/2020 12:00
Clear
Clear
 Wind from N
Wind: N 17 km/h
Temperature: 27°C
Heat Index: 27°C
Dew Point: 13°C
Humidity: 42%
Barometer: 1020 hPa
Clouds: Clear
Visibility: 10 km
2020/02/22 01:00 YGTH 220100Z AUTO 01009KT 9999 // NCD 27/13 Q1020